Time;durP1;ratioP1;P1;durP2;ratioP2;P2;SDS_P1;SDS_P2;PMS_P1;PMS_P2;Temp;Humidity;BMP_temperature;BMP_pressure;BME280_temperature;BME280_humidity;BME280_pressure;Samples;Min_cycle;Max_cycle;Signal;HPM_P1;HPM_P2
2022/07/24 00:00:07;;;;;;;8.32;4.78;;;;;;;28.80;66.32;100835.59;4958747;29;20031;-73
2022/07/24 00:02:53;;;;;;;8.27;4.63;;;;;;;29.00;65.24;100835.50;4957873;29;20035;-73
2022/07/24 00:05:39;;;;;;;7.22;4.40;;;;;;;28.59;66.84;100829.44;4958349;29;20110;-73
2022/07/24 00:08:24;;;;;;;7.68;4.70;;;;;;;28.59;67.65;100834.81;4958309;29;20065;-73
2022/07/24 00:11:10;;;;;;;6.32;4.57;;;;;;;28.53;68.41;100828.13;4958142;29;20419;-73
2022/07/24 00:13:56;;;;;;;8.05;4.65;;;;;;;28.53;68.33;100825.44;4957899;28;20027;-72
2022/07/24 00:16:43;;;;;;;7.85;4.38;;;;;;;28.66;68.03;100827.88;4957649;29;20042;-72
2022/07/24 00:19:29;;;;;;;7.03;4.55;;;;;;;28.56;68.13;100821.63;4958183;29;20120;-73
2022/07/24 00:22:15;;;;;;;6.68;4.78;;;;;;;28.25;69.27;100810.00;4957175;29;20046;-73
2022/07/24 00:25:01;;;;;;;6.40;4.50;;;;;;;28.61;67.92;100820.22;4945178;28;20031;-73
2022/07/24 00:27:46;;;;;;;8.07;4.75;;;;;;;28.83;66.02;100811.88;4957476;29;20050;-73
2022/07/24 00:30:32;;;;;;;7.55;4.55;;;;;;;28.92;65.16;100807.47;4957622;29;20122;-73
2022/07/24 00:33:18;;;;;;;8.73;4.43;;;;;;;28.66;67.36;100809.88;4943731;28;20106;-72
2022/07/24 00:36:04;;;;;;;11.63;4.68;;;;;;;28.92;66.07;100802.94;4958219;29;20039;-73
2022/07/24 00:38:50;;;;;;;6.47;4.60;;;;;;;28.98;65.28;100802.38;4943912;29;20031;-73
2022/07/24 00:41:35;;;;;;;8.50;4.80;;;;;;;28.85;65.44;100800.97;4957457;29;20027;-73
2022/07/24 00:44:21;;;;;;;8.43;4.50;;;;;;;28.86;65.82;100803.50;4943615;29;20104;-73
2022/07/24 00:47:07;;;;;;;8.93;4.88;;;;;;;28.36;68.16;100793.72;4958163;29;20086;-72
2022/07/24 00:49:53;;;;;;;7.65;4.70;;;;;;;28.67;66.92;100795.38;4957105;29;20457;-73
2022/07/24 00:52:38;;;;;;;8.50;4.47;;;;;;;28.65;66.20;100799.22;4957526;29;20063;-72
2022/07/24 00:55:25;;;;;;;8.73;4.57;;;;;;;28.68;65.62;100794.38;4944487;29;20493;-73
2022/07/24 00:58:12;;;;;;;7.60;4.72;;;;;;;28.66;65.48;100785.59;4956704;29;20053;-73
2022/07/24 01:00:58;;;;;;;6.93;4.38;;;;;;;28.83;64.86;100782.22;4943594;29;20035;-73
2022/07/24 01:03:44;;;;;;;10.55;4.68;;;;;;;28.69;66.30;100777.22;4957052;28;20054;-73
2022/07/24 01:06:30;;;;;;;8.30;4.82;;;;;;;28.48;65.78;100771.09;4957309;29;20035;-73
2022/07/24 01:09:16;;;;;;;7.53;4.85;;;;;;;28.71;64.63;100771.69;4956850;29;20046;-73
2022/07/24 01:12:03;;;;;;;8.07;4.60;;;;;;;28.76;64.98;100767.56;4956268;29;20027;-72
2022/07/24 01:14:49;;;;;;;10.10;4.72;;;;;;;28.56;65.08;100768.53;4957119;28;20093;-72
2022/07/24 01:17:36;;;;;;;7.25;4.72;;;;;;;28.83;63.76;100765.16;4956745;29;20031;-72
2022/07/24 01:20:22;;;;;;;11.43;4.97;;;;;;;28.65;64.13;100762.31;4943586;29;20437;-72
2022/07/24 01:23:08;;;;;;;10.32;4.68;;;;;;;28.72;63.65;100763.47;4956661;29;20024;-73
2022/07/24 01:25:54;;;;;;;11.00;4.75;;;;;;;28.87;62.40;100762.03;4957027;29;20066;-73
2022/07/24 01:28:40;;;;;;;7.25;4.53;;;;;;;28.62;63.35;100764.44;4956363;29;20461;-72
2022/07/24 01:31:25;;;;;;;11.25;5.53;;;;;;;28.63;66.98;100758.91;4956268;28;20172;-73
2022/07/24 01:34:12;;;;;;;14.40;7.40;;;;;;;28.76;72.10;100766.75;4956116;28;20027;-73
2022/07/24 01:36:57;;;;;;;14.18;8.32;;;;;;;28.58;81.53;100763.88;4956748;29;20106;-73
2022/07/24 01:39:43;;;;;;;14.20;8.10;;;;;;;28.41;86.06;100760.97;4956193;29;20027;-73
2022/07/24 01:42:29;;;;;;;14.57;7.07;;;;;;;28.18;86.83;100756.78;4957277;29;20450;-71
2022/07/24 01:45:15;;;;;;;16.98;8.35;;;;;;;27.85;91.39;100752.59;4960548;28;20127;-71
2022/07/24 01:48:01;;;;;;;14.90;7.82;;;;;;;27.98;93.33;100749.63;4959582;29;20470;-72
2022/07/24 01:50:47;;;;;;;14.52;8.02;;;;;;;28.02;93.07;100759.16;4957100;29;20046;-72
2022/07/24 01:53:33;;;;;;;12.60;6.90;;;;;;;27.90;93.59;100755.72;4957727;28;20094;-72
2022/07/24 01:56:19;;;;;;;13.48;6.78;;;;;;;27.55;97.41;100759.78;4958131;29;20035;-72
2022/07/24 01:59:04;;;;;;;8.48;6.13;;;;;;;27.62;95.98;100756.41;4947697;29;20046;-71
2022/07/24 02:01:50;;;;;;;14.13;5.65;;;;;;;27.46;95.03;100769.50;4961667;29;20387;-71
2022/07/24 02:04:36;;;;;;;11.50;6.10;;;;;;;27.52;94.44;100762.72;4960411;28;20102;-72
2022/07/24 02:07:22;;;;;;;13.48;5.88;;;;;;;27.14;96.05;100776.75;4957474;29;20114;-72
2022/07/24 02:10:08;;;;;;;12.73;6.10;;;;;;;26.90;98.75;100781.50;4956486;29;20035;-72
2022/07/24 02:12:55;;;;;;;11.20;6.03;;;;;;;26.75;99.84;100788.16;4956283;29;20027;-73
2022/07/24 02:15:41;;;;;;;8.80;6.18;;;;;;;26.69;100.00;100783.31;4955762;29;20046;-73
2022/07/24 02:18:27;;;;;;;11.38;5.65;;;;;;;26.71;99.94;100787.56;4957095;29;20386;-72
2022/07/24 02:21:13;;;;;;;8.93;5.93;;;;;;;26.13;100.00;100774.47;4956727;29;20027;-72
2022/07/24 02:23:59;;;;;;;11.27;6.32;;;;;;;26.42;100.00;100762.22;4955574;28;20107;-73
2022/07/24 02:26:44;;;;;;;12.63;5.68;;;;;;;26.16;100.00;100763.47;4942605;29;20070;-72
2022/07/24 02:29:30;;;;;;;8.18;6.07;;;;;;;26.47;100.00;100760.00;4956452;29;20343;-72
2022/07/24 02:32:16;;;;;;;12.00;6.88;;;;;;;26.67;99.31;100764.59;4956114;29;20028;-72
2022/07/24 02:35:02;;;;;;;10.63;6.55;;;;;;;26.71;98.77;100758.00;4955736;28;20027;-72
2022/07/24 02:37:48;;;;;;;8.02;5.93;;;;;;;26.63;99.35;100760.47;4955990;29;20031;-72
2022/07/24 02:40:34;;;;;;;8.63;5.95;;;;;;;26.25;100.00;100752.00;4956050;29;20054;-73
2022/07/24 02:43:20;;;;;;;10.13;6.10;;;;;;;26.21;100.00;100757.72;4942226;28;20469;-73
2022/07/24 02:46:06;;;;;;;13.50;6.45;;;;;;;26.69;97.74;100761.78;4959252;29;20034;-72
2022/07/24 02:48:51;;;;;;;9.13;6.05;;;;;;;26.53;98.09;100764.84;4960100;29;20457;-73
2022/07/24 02:51:37;;;;;;;10.45;6.20;;;;;;;26.56;97.52;100769.16;4959099;29;20101;-72
2022/07/24 02:54:23;;;;;;;9.80;5.85;;;;;;;26.67;97.89;100766.44;4959767;28;20046;-72
2022/07/24 02:57:09;;;;;;;7.78;5.60;;;;;;;26.38;100.00;100757.19;4959841;29;20042;-72
2022/07/24 02:59:54;;;;;;;8.77;6.15;;;;;;;26.28;100.00;100751.72;4959354;29;20086;-72
2022/07/24 03:02:41;;;;;;;7.95;6.00;;;;;;;26.50;100.00;100750.81;4959289;29;20121;-73
2022/07/24 03:05:26;;;;;;;9.63;6.20;;;;;;;26.39;100.00;100756.22;4959540;28;20442;-73
2022/07/24 03:08:12;;;;;;;11.27;5.70;;;;;;;26.57;100.00;100760.09;4959919;29;20039;-72
2022/07/24 03:10:58;;;;;;;10.88;6.63;;;;;;;26.66;100.00;100762.91;4959387;29;20062;-72
2022/07/24 03:13:44;;;;;;;10.35;6.40;;;;;;;26.90;98.68;100770.75;4959594;28;20023;-73
2022/07/24 03:16:29;;;;;;;11.02;6.20;;;;;;;26.98;97.47;100770.94;4959326;29;20342;-72
2022/07/24 03:19:15;;;;;;;13.77;6.20;;;;;;;26.60;100.00;100767.94;4945626;29;20049;-71
2022/07/24 03:22:01;;;;;;;12.18;6.10;;;;;;;26.40;100.00;100760.63;4958509;29;20027;-72
2022/07/24 03:24:47;;;;;;;11.10;6.82;;;;;;;26.58;100.00;100757.31;4945698;29;20462;-72
2022/07/24 03:27:32;;;;;;;12.45;6.22;;;;;;;26.58;99.02;100754.63;4958960;28;20126;-72
2022/07/24 03:30:19;;;;;;;12.75;7.10;;;;;;;26.93;97.67;100757.88;4946520;28;20031;-72
2022/07/24 03:33:05;;;;;;;8.73;6.70;;;;;;;26.79;97.64;100760.03;4945585;29;20031;-72
2022/07/24 03:35:51;;;;;;;9.80;6.50;;;;;;;26.87;98.25;100766.47;4959117;29;20042;-73
2022/07/24 03:38:36;;;;;;;12.50;5.82;;;;;;;27.15;94.26;100771.25;4959518;28;20031;-73
2022/07/24 03:41:22;;;;;;;10.90;5.95;;;;;;;27.09;94.09;100766.38;4959442;29;20062;-71
2022/07/24 03:44:08;;;;;;;10.57;6.35;;;;;;;26.59;99.07;100771.59;4958701;28;20480;-72
2022/07/24 03:46:54;;;;;;;11.30;6.22;;;;;;;26.76;97.72;100761.16;4958816;29;20098;-72
2022/07/24 03:49:39;;;;;;;8.52;5.97;;;;;;;26.90;93.98;100760.00;4959007;29;20046;-72
2022/07/24 03:52:25;;;;;;;8.85;5.43;;;;;;;26.88;91.31;100765.50;4958603;29;20073;-72
2022/07/24 03:55:11;;;;;;;10.10;5.60;;;;;;;26.73;91.43;100758.69;4958378;28;20027;-73
2022/07/24 03:57:57;;;;;;;8.88;5.45;;;;;;;26.87;90.92;100758.41;4958795;29;20023;-72
2022/07/24 04:00:42;;;;;;;10.10;5.97;;;;;;;27.25;87.31;100760.59;4945594;29;20036;-73
2022/07/24 04:03:28;;;;;;;8.55;5.13;;;;;;;27.09;86.74;100765.53;4958826;28;20027;-73
2022/07/24 04:06:14;;;;;;;9.32;5.53;;;;;;;27.01;84.89;100759.94;4959379;28;20027;-72
2022/07/24 04:09:01;;;;;;;9.68;4.95;;;;;;;27.21;83.54;100761.81;4958822;29;20023;-72
2022/07/24 04:11:47;;;;;;;7.88;5.20;;;;;;;27.22;83.66;100761.69;4958637;29;20445;-71
2022/07/24 04:14:33;;;;;;;11.43;5.55;;;;;;;27.24;85.13;100769.63;4959076;28;20023;-72
2022/07/24 04:17:18;;;;;;;10.25;5.32;;;;;;;27.07;85.55;100759.41;4958553;29;20027;-73
2022/07/24 04:20:05;;;;;;;11.05;5.50;;;;;;;27.56;81.91;100758.78;4958662;28;20023;-73
2022/07/24 04:22:51;;;;;;;12.55;5.68;;;;;;;27.31;84.21;100762.72;4958237;29;20114;-73
2022/07/24 04:25:37;;;;;;;12.27;5.75;;;;;;;26.89;84.91;100761.81;4945433;28;20529;-73
2022/07/24 04:28:23;;;;;;;10.35;5.30;;;;;;;27.04;84.29;100760.53;4943881;29;20102;-73
2022/07/24 04:31:08;;;;;;;8.68;4.90;;;;;;;26.79;85.14;100762.72;4957840;29;20023;-72
2022/07/24 04:33:54;;;;;;;12.23;5.45;;;;;;;26.44;87.09;100757.56;4957865;28;20042;-71
2022/07/24 04:36:40;;;;;;;8.18;5.07;;;;;;;26.62;87.13;100757.91;4957443;29;20039;-73
2022/07/24 04:39:26;;;;;;;7.10;4.82;;;;;;;26.88;86.29;100762.81;4957799;28;20041;-73
2022/07/24 04:42:11;;;;;;;8.75;4.97;;;;;;;26.73;86.66;100765.94;4957311;29;20122;-73
2022/07/24 04:44:57;;;;;;;8.15;5.28;;;;;;;26.78;86.95;100769.94;4957060;28;20035;-73
2022/07/24 04:47:43;;;;;;;9.90;4.88;;;;;;;27.03;86.32;100766.03;4957883;29;20118;-72
2022/07/24 04:50:29;;;;;;;9.88;5.65;;;;;;;26.92;87.77;100766.94;4957683;29;20480;-73
2022/07/24 04:53:15;;;;;;;8.68;5.32;;;;;;;27.18;85.69;100772.81;4957178;28;20035;-73
2022/07/24 04:56:00;;;;;;;8.10;5.53;;;;;;;27.24;85.09;100770.47;4958139;29;20035;-72
2022/07/24 04:58:47;;;;;;;6.97;5.22;;;;;;;27.01;87.10;100778.78;4957704;29;20121;-72
2022/07/24 05:01:32;;;;;;;8.63;5.50;;;;;;;27.52;85.16;100777.03;4957248;29;20058;-72
2022/07/24 05:04:18;;;;;;;8.38;5.40;;;;;;;27.43;86.40;100775.13;4957244;28;20023;-73
2022/07/24 05:07:04;;;;;;;7.85;4.93;;;;;;;27.40;87.57;100770.88;4957521;28;20026;-72
2022/07/24 05:09:50;;;;;;;11.63;5.60;;;;;;;27.52;87.77;100761.72;4957266;29;20034;-72
2022/07/24 05:12:36;;;;;;;9.30;5.53;;;;;;;27.44;88.46;100755.28;4957674;29;20028;-72
2022/07/24 05:15:21;;;;;;;9.27;5.78;;;;;;;27.74;87.27;100746.38;4955999;28;20035;-73
2022/07/24 05:18:07;;;;;;;9.35;5.70;;;;;;;27.67;88.08;100754.16;4957271;29;20027;-73
2022/07/24 05:20:53;;;;;;;11.75;5.97;;;;;;;27.61;88.67;100748.47;4956814;29;20038;-73
2022/07/24 05:23:38;;;;;;;12.25;6.10;;;;;;;28.08;87.29;100754.06;4943355;28;20042;-73
2022/07/24 05:26:24;;;;;;;16.27;6.10;;;;;;;28.68;83.22;100750.41;4956887;29;20058;-73
2022/07/24 05:29:10;;;;;;;9.38;6.13;;;;;;;28.55;83.13;100752.50;4943950;29;20038;-73
2022/07/24 05:31:56;;;;;;;16.15;6.72;;;;;;;28.48;82.58;100764.88;4957010;29;20090;-72
2022/07/24 05:34:42;;;;;;;11.32;6.18;;;;;;;28.66;80.57;100749.69;4957863;28;20480;-73
2022/07/24 05:37:28;;;;;;;10.55;6.05;;;;;;;28.89;80.18;100754.66;4959298;29;20093;-72
2022/07/24 05:40:14;;;;;;;13.27;6.47;;;;;;;28.87;79.88;100758.50;4956666;29;20035;-72
2022/07/24 05:42:59;;;;;;;11.75;6.00;;;;;;;29.04;80.34;100755.09;4956969;29;20370;-73
2022/07/24 05:45:45;;;;;;;11.25;5.70;;;;;;;29.07;79.85;100760.22;4956602;29;20547;-73
2022/07/24 05:48:31;;;;;;;11.40;6.10;;;;;;;28.98;80.08;100752.94;4956966;29;20117;-73
2022/07/24 05:51:17;;;;;;;9.32;5.90;;;;;;;29.13;80.50;100757.78;4957064;29;20027;-73
2022/07/24 05:54:03;;;;;;;8.05;5.93;;;;;;;28.99;80.56;100760.03;4956882;28;20027;-72
2022/07/24 05:56:49;;;;;;;9.88;5.75;;;;;;;29.16;81.84;100752.13;4956852;29;20509;-73
2022/07/24 05:59:35;;;;;;;12.57;6.97;;;;;;;29.71;80.11;100751.31;4956574;29;20089;-72
2022/07/24 06:02:21;;;;;;;12.52;6.63;;;;;;;29.70;74.64;100752.28;4956538;29;20115;-72
2022/07/24 06:05:07;;;;;;;14.57;7.05;;;;;;;29.60;71.79;100743.38;4955170;29;20040;-73
2022/07/24 06:07:52;;;;;;;11.93;6.35;;;;;;;29.66;70.50;100742.78;4956169;29;20397;-73
2022/07/24 06:10:38;;;;;;;8.75;5.78;;;;;;;30.02;69.47;100751.88;4956364;29;20103;-73
2022/07/24 06:13:24;;;;;;;12.98;6.22;;;;;;;30.04;67.39;100741.75;4956813;28;20046;-73
2022/07/24 06:16:10;;;;;;;12.80;6.13;;;;;;;30.16;66.42;100732.47;4956197;29;20331;-73
2022/07/24 06:18:55;;;;;;;8.23;5.95;;;;;;;30.29;64.03;100744.66;4955770;29;20042;-72
2022/07/24 06:21:41;;;;;;;8.13;5.47;;;;;;;30.38;64.12;100738.31;4956173;29;20070;-73
2022/07/24 06:24:27;;;;;;;8.93;6.25;;;;;;;30.12;66.24;100733.75;4956481;28;20122;-72
2022/07/24 06:27:13;;;;;;;13.90;7.60;;;;;;;30.17;65.44;100718.81;4955380;29;20075;-73
2022/07/24 06:29:58;;;;;;;7.97;5.70;;;;;;;30.56;62.18;100720.28;4956472;29;20343;-73
2022/07/24 06:32:44;;;;;;;8.43;6.15;;;;;;;30.61;62.03;100717.09;4956225;29;20466;-72
2022/07/24 06:35:33;;;;;;;14.05;8.30;;;;;;;30.73;61.03;100714.03;4955033;28;20465;-73
2022/07/24 06:38:18;;;;;;;12.25;5.65;;;;;;;30.45;62.15;100712.38;4956281;29;20042;-73
2022/07/24 06:41:04;;;;;;;9.82;6.13;;;;;;;30.85;60.92;100704.66;4956611;29;20039;-74
2022/07/24 06:43:50;;;;;;;10.13;6.28;;;;;;;30.81;62.87;100705.13;4955523;28;20463;-73
2022/07/24 06:46:36;;;;;;;11.48;6.10;;;;;;;31.12;61.68;100707.25;4955461;29;20039;-73
2022/07/24 06:49:22;;;;;;;13.13;6.38;;;;;;;31.38;60.11;100702.72;4956121;29;20023;-73
2022/07/24 06:52:08;;;;;;;12.00;6.15;;;;;;;31.83;58.74;100702.50;4954827;29;20033;-73
2022/07/24 06:54:54;;;;;;;9.85;5.45;;;;;;;31.77;59.26;100700.44;4956121;28;20031;-73
2022/07/24 06:57:40;;;;;;;15.27;6.45;;;;;;;32.03;59.10;100697.66;4954804;29;20035;-73
2022/07/24 07:00:26;;;;;;;10.48;6.20;;;;;;;32.04;58.55;100693.94;4954968;29;20090;-73
2022/07/24 07:03:12;;;;;;;11.57;6.00;;;;;;;32.16;56.73;100693.47;4955852;28;20031;-73
2022/07/24 07:05:58;;;;;;;9.48;6.13;;;;;;;32.13;56.15;100693.78;4956065;29;20505;-73
2022/07/24 07:08:43;;;;;;;13.25;6.22;;;;;;;32.46;55.65;100690.16;4942318;29;20046;-72
2022/07/24 07:11:29;;;;;;;10.38;5.80;;;;;;;32.59;54.91;100689.69;4955359;29;20050;-72
2022/07/24 07:14:15;;;;;;;11.52;6.38;;;;;;;32.76;54.89;100692.25;4955561;28;20362;-74
2022/07/24 07:17:01;;;;;;;12.82;6.65;;;;;;;32.83;53.51;100682.41;4955518;29;20454;-74
2022/07/24 07:19:46;;;;;;;11.80;5.75;;;;;;;32.96;53.44;100687.34;4955856;29;20031;-74
2022/07/24 07:22:32;;;;;;;11.52;6.05;;;;;;;32.97;53.43;100689.91;4954941;29;20023;-73
2022/07/24 07:25:18;;;;;;;11.80;5.75;;;;;;;33.53;52.98;100680.81;4955757;28;20046;-74
2022/07/24 07:28:04;;;;;;;9.50;5.95;;;;;;;33.77;52.18;100686.16;4955665;29;20031;-74
2022/07/24 07:30:50;;;;;;;15.82;6.25;;;;;;;33.56;51.90;100692.19;4956601;28;20038;-73
2022/07/24 07:33:35;;;;;;;10.55;5.80;;;;;;;34.00;50.01;100687.94;4958950;28;20038;-74
2022/07/24 07:36:21;;;;;;;8.23;5.80;;;;;;;33.65;48.89;100684.84;4959370;29;20035;-75
2022/07/24 07:39:07;;;;;;;19.27;10.05;;;;;;;33.64;52.33;100675.88;4958760;29;20035;-74
2022/07/24 07:41:53;;;;;;;22.30;9.00;;;;;;;33.68;52.42;100681.78;4958973;29;20035;-73
2022/07/24 07:44:39;;;;;;;13.05;7.05;;;;;;;33.93;50.55;100683.41;4958277;28;20450;-75
2022/07/24 07:47:24;;;;;;;13.35;6.55;;;;;;;34.15;48.94;100688.06;4958870;29;20118;-74
2022/07/24 07:50:11;;;;;;;14.75;7.03;;;;;;;34.39;48.32;100683.34;4958554;29;20031;-74
2022/07/24 07:52:57;;;;;;;13.27;6.35;;;;;;;34.60;48.05;100682.69;4957974;29;20090;-74
2022/07/24 07:55:42;;;;;;;10.27;6.32;;;;;;;34.77;47.20;100679.69;4945828;29;20035;-74
2022/07/24 07:58:28;;;;;;;14.40;6.70;;;;;;;35.17;46.96;100675.75;4958681;29;20122;-74
2022/07/24 08:01:14;;;;;;;12.90;6.22;;;;;;;35.49;46.20;100680.03;4958426;29;20035;-74
2022/07/24 08:04:00;;;;;;;9.55;5.85;;;;;;;35.51;46.05;100680.72;4958322;28;20027;-74
2022/07/24 08:06:45;;;;;;;10.60;6.20;;;;;;;35.37;45.82;100673.34;4958989;29;20198;-74
2022/07/24 08:09:31;;;;;;;10.25;6.43;;;;;;;35.51;46.74;100672.53;4957926;29;20026;-74
2022/07/24 08:12:17;;;;;;;12.65;5.97;;;;;;;35.58;46.55;100666.13;4958733;29;20458;-74
2022/07/24 08:15:04;;;;;;;8.75;5.85;;;;;;;36.10;46.11;100675.03;4957667;28;20038;-73
2022/07/24 08:17:55;;;;;;;9.48;6.22;;;;;;;35.38;46.41;100667.72;4958640;29;20078;-74
2022/07/24 08:20:43;;;;;;;12.98;6.20;;;;;;;35.15;46.85;100677.81;4957909;29;20537;-74
2022/07/24 08:23:29;;;;;;;9.57;6.13;;;;;;;36.21;45.41;100674.53;4957370;28;20038;-74
2022/07/24 08:26:15;;;;;;;8.52;5.95;;;;;;;36.67;44.49;100675.88;4957500;29;20117;-75
2022/07/24 08:29:01;;;;;;;10.95;6.35;;;;;;;36.44;44.14;100672.50;4958211;29;20459;-75
2022/07/24 08:31:47;;;;;;;13.18;6.30;;;;;;;36.62;44.17;100663.84;4958261;29;20360;-74
2022/07/24 08:34:32;;;;;;;9.00;5.68;;;;;;;36.98;43.55;100665.50;4957759;28;20023;-75
2022/07/24 08:37:20;;;;;;;11.25;6.38;;;;;;;37.55;41.86;100666.13;4958614;29;20039;-76
2022/07/24 08:40:08;;;;;;;13.45;7.35;;;;;;;36.98;42.62;100676.41;4957543;29;20027;-75
2022/07/24 08:42:54;;;;;;;9.73;6.15;;;;;;;37.54;41.80;100680.84;4957021;28;20043;-74
2022/07/24 08:45:41;;;;;;;12.82;8.15;;;;;;;37.34;40.76;100677.16;4957158;29;20035;-74
2022/07/24 08:48:27;;;;;;;12.15;6.60;;;;;;;37.58;39.51;100684.03;4957810;29;20520;-74
2022/07/24 08:51:14;;;;;;;11.57;6.55;;;;;;;37.52;37.84;100674.72;4957816;29;20050;-75
2022/07/24 08:54:02;;;;;;;11.05;6.82;;;;;;;37.72;37.73;100678.44;4957236;28;20031;-75
2022/07/24 08:56:47;;;;;;;13.60;6.80;;;;;;;38.08;35.75;100676.34;4956429;29;20031;-74
2022/07/24 08:59:34;;;;;;;12.60;6.82;;;;;;;38.28;34.75;100679.97;4957235;29;20465;-74
2022/07/24 09:02:20;;;;;;;16.77;7.20;;;;;;;38.16;34.26;100678.88;4958130;29;20395;-75
2022/07/24 09:05:06;;;;;;;10.15;6.93;;;;;;;38.38;33.42;100680.44;4957817;28;20102;-75
2022/07/24 09:08:14;;;;;;;13.25;7.00;;;;;;;37.34;34.71;100684.50;4943368;29;20048;-75
2022/07/24 09:11:05;;;;;;;9.65;6.82;;;;;;;37.87;33.57;100679.16;4956697;29;20133;-74
2022/07/24 09:17:18;;;;;;;14.80;7.13;;;;;;;38.09;33.07;100682.66;4956676;29;20027;-74
2022/07/24 09:20:07;;;;;;;9.80;6.80;;;;;;;38.54;32.12;100680.06;4957849;29;20027;-74
2022/07/24 09:22:57;;;;;;;9.98;6.75;;;;;;;38.88;31.30;100677.16;4956435;29;20035;-74
2022/07/24 09:25:50;;;;;;;11.40;7.05;;;;;;;38.05;31.30;100671.25;4957972;28;20058;-74
2022/07/24 09:28:48;;;;;;;12.73;6.90;;;;;;;38.77;31.76;100672.28;4943296;29;20462;-74
2022/07/24 09:31:49;;;;;;;11.73;6.65;;;;;;;37.76;31.28;100657.84;4957171;29;20114;-74
2022/07/24 09:34:39;;;;;;;16.48;6.72;;;;;;;38.86;31.35;100664.72;4956293;28;20390;-73
2022/07/24 09:37:29;;;;;;;11.27;7.30;;;;;;;39.02;31.37;100658.00;4956484;29;20041;-74
2022/07/24 09:40:16;;;;;;;12.50;6.97;;;;;;;38.87;31.48;100660.94;4957018;28;20042;-74
2022/07/24 09:43:25;;;;;;;12.25;7.25;;;;;;;38.81;31.35;100653.56;4943656;29;20020;-74
2022/07/24 09:46:13;;;;;;;13.82;6.88;;;;;;;38.01;31.98;100652.69;4956304;29;20023;-74
2022/07/24 09:48:59;;;;;;;10.88;6.30;;;;;;;38.83;31.69;100656.91;4956776;29;20035;-74
2022/07/24 09:51:47;;;;;;;14.40;6.68;;;;;;;38.49;31.63;100641.50;4956606;29;20038;-74
2022/07/24 09:54:36;;;;;;;12.73;6.70;;;;;;;38.66;31.68;100644.69;4955234;28;20442;-74
2022/07/24 09:57:26;;;;;;;13.07;6.78;;;;;;;38.93;31.07;100643.69;4955675;29;20051;-74
2022/07/24 10:00:12;;;;;;;12.63;7.55;;;;;;;38.92;31.62;100633.75;4956241;29;20505;-74
2022/07/24 10:03:04;;;;;;;12.38;6.90;;;;;;;38.84;31.84;100633.94;4956362;29;20033;-74
2022/07/24 10:05:55;;;;;;;13.00;7.15;;;;;;;38.93;31.77;100642.84;4956037;29;20457;-74
2022/07/24 10:08:42;;;;;;;11.18;6.93;;;;;;;38.62;31.59;100635.22;4956055;29;20063;-75
2022/07/24 10:11:34;;;;;;;16.05;7.03;;;;;;;38.77;31.48;100638.59;4956108;29;20027;-74
2022/07/24 10:14:20;;;;;;;12.63;6.95;;;;;;;38.83;32.26;100638.59;4955742;28;20174;-74
2022/07/24 10:17:08;;;;;;;11.20;6.90;;;;;;;38.98;31.90;100634.81;4956739;29;20508;-74
2022/07/24 10:19:54;;;;;;;9.60;6.88;;;;;;;38.85;32.12;100639.22;4955968;29;20386;-73
2022/07/24 10:23:04;;;;;;;11.38;6.93;;;;;;;38.80;31.84;100636.25;4956161;29;20031;-73
2022/07/24 10:26:05;;;;;;;13.02;6.75;;;;;;;38.03;32.67;100621.38;4955926;29;20082;-74
2022/07/24 10:29:03;;;;;;;10.98;6.70;;;;;;;38.88;32.09;100625.09;4955209;29;20026;-75
2022/07/24 10:31:51;;;;;;;15.18;7.43;;;;;;;38.62;32.11;100629.72;4955816;29;20027;-74
2022/07/24 10:34:47;;;;;;;16.05;7.38;;;;;;;38.52;32.05;100619.19;4942467;29;20067;-75
2022/07/24 10:37:36;;;;;;;11.25;7.30;;;;;;;38.98;31.75;100619.22;4956092;29;20086;-74
2022/07/24 10:40:39;;;;;;;12.70;6.80;;;;;;;38.42;31.97;100621.47;4954850;29;20080;-74
2022/07/24 10:43:24;;;;;;;10.93;6.80;;;;;;;38.49;31.98;100608.63;4956435;28;20047;-75
2022/07/24 10:46:12;;;;;;;17.00;7.90;;;;;;;38.49;31.55;100613.28;4954951;29;20062;-74
2022/07/24 10:48:57;;;;;;;14.05;7.72;;;;;;;39.15;30.86;100608.63;4955146;29;20034;-75
2022/07/24 10:51:59;;;;;;;10.75;6.82;;;;;;;38.91;30.38;100599.19;4955377;29;20532;-74
2022/07/24 10:54:44;;;;;;;13.13;7.47;;;;;;;39.09;30.54;100595.78;4955533;28;20170;-75
2022/07/24 10:58:01;;;;;;;12.55;7.50;;;;;;;39.21;29.53;100596.81;4956052;29;20031;-74
2022/07/24 11:00:49;;;;;;;9.90;6.57;;;;;;;39.69;28.66;100595.44;4955937;29;20046;-74
2022/07/24 11:03:35;;;;;;;15.43;7.05;;;;;;;39.74;29.05;100596.47;4955299;28;20024;-75
2022/07/24 11:06:39;;;;;;;10.65;6.43;;;;;;;39.19;28.66;100586.06;4959113;28;20065;-75
2022/07/24 11:09:26;;;;;;;14.93;7.03;;;;;;;38.56;29.63;100587.59;4958922;29;20350;-74
2022/07/24 11:12:13;;;;;;;13.43;7.07;;;;;;;38.54;29.83;100584.19;4958380;29;20063;-74
2022/07/24 11:18:15;;;;;;;12.25;6.90;;;;;;;38.28;30.04;100581.41;4959111;29;20457;-75
2022/07/24 11:21:01;;;;;;;14.02;7.30;;;;;;;39.11;28.79;100566.25;4959288;29;20058;-74
2022/07/24 11:24:16;;;;;;;9.68;6.65;;;;;;;38.32;28.50;100574.47;4958721;28;20027;-75
2022/07/24 11:27:06;;;;;;;16.80;7.50;;;;;;;38.88;28.25;100563.94;4957672;29;20114;-74
2022/07/24 11:29:53;;;;;;;10.95;7.32;;;;;;;38.77;28.56;100568.19;4958698;29;20129;-74
2022/07/24 11:32:41;;;;;;;11.45;6.93;;;;;;;39.56;28.29;100559.84;4959427;29;20058;-75
2022/07/24 11:35:33;;;;;;;11.48;7.13;;;;;;;39.87;26.49;100555.25;4958618;28;20035;-74
2022/07/24 11:38:28;;;;;;;11.38;6.97;;;;;;;40.17;27.42;100550.81;4958510;29;20031;-74
2022/07/24 11:41:14;;;;;;;11.60;7.38;;;;;;;40.09;27.67;100547.53;4958664;29;20418;-75
2022/07/24 11:43:59;;;;;;;13.52;7.43;;;;;;;39.50;28.24;100553.31;4958776;28;20354;-74
2022/07/24 11:46:45;;;;;;;11.43;6.93;;;;;;;40.03;25.20;100548.41;4945283;29;20026;-75
2022/07/24 11:49:38;;;;;;;12.73;6.88;;;;;;;40.01;25.02;100551.34;4958769;29;20035;-75
2022/07/24 11:52:26;;;;;;;8.10;6.50;;;;;;;40.39;24.57;100540.34;4957989;29;20106;-74
2022/07/24 11:55:14;;;;;;;9.93;6.80;;;;;;;40.10;24.86;100538.22;4958576;28;20465;-74
2022/07/24 11:58:01;;;;;;;11.98;7.85;;;;;;;40.54;25.88;100543.59;4958544;29;20035;-74
2022/07/24 12:00:46;;;;;;;14.00;7.18;;;;;;;41.11;25.31;100535.06;4958435;29;20031;-75
2022/07/24 12:03:32;;;;;;;9.45;6.95;;;;;;;41.42;25.00;100534.94;4958349;28;20403;-72
2022/07/24 12:06:19;;;;;;;9.13;6.80;;;;;;;41.15;24.05;100531.63;4958666;29;20387;-74
2022/07/24 12:09:07;;;;;;;11.73;7.28;;;;;;;41.46;23.63;100522.38;4944917;29;20035;-74
2022/07/24 12:11:53;;;;;;;11.80;7.93;;;;;;;40.29;24.55;100518.88;4958289;29;20042;-74
2022/07/24 12:14:38;;;;;;;12.05;7.38;;;;;;;40.69;23.95;100519.41;4943996;29;20478;-75
2022/07/24 12:17:24;;;;;;;15.15;7.10;;;;;;;40.16;23.72;100515.34;4943816;29;20169;-75
2022/07/24 12:20:10;;;;;;;11.65;7.70;;;;;;;40.22;24.20;100517.25;4958697;29;20035;-75
2022/07/24 12:22:58;;;;;;;11.75;6.95;;;;;;;40.64;23.67;100516.47;4958032;29;20381;-75
2022/07/24 12:25:44;;;;;;;9.95;7.07;;;;;;;40.64;23.74;100519.22;4957937;28;20449;-74
2022/07/24 12:28:30;;;;;;;9.90;7.25;;;;;;;40.91;22.86;100510.50;4956952;29;20035;-74
2022/07/24 12:31:16;;;;;;;11.18;8.07;;;;;;;39.74;24.46;100502.31;4957581;29;20059;-75
2022/07/24 12:34:03;;;;;;;13.32;7.82;;;;;;;39.83;24.60;100501.88;4957150;28;20422;-74
2022/07/24 12:36:49;;;;;;;13.00;8.43;;;;;;;40.57;24.31;100500.03;4957875;29;20027;-74
2022/07/24 12:39:45;;;;;;;11.45;7.93;;;;;;;40.57;23.73;100491.78;4943737;29;20039;-75
2022/07/24 12:42:32;;;;;;;14.18;8.52;;;;;;;39.87;24.09;100488.53;4957572;29;20035;-74
2022/07/24 12:45:17;;;;;;;13.38;7.45;;;;;;;40.28;24.62;100484.25;4956906;28;20035;-74
2022/07/24 12:48:10;;;;;;;15.85;7.97;;;;;;;40.65;23.62;100487.97;4957592;29;20504;-74
2022/07/24 12:51:03;;;;;;;12.27;7.78;;;;;;;40.55;24.22;100487.59;4957439;29;20031;-74
2022/07/24 12:53:53;;;;;;;17.75;9.30;;;;;;;40.57;24.13;100491.78;4957955;28;20023;-75
2022/07/24 12:56:40;;;;;;;10.95;9.27;;;;;;;40.67;23.19;100489.41;4944252;29;20485;-76